Time;durP1;ratioP1;P1;durP2;ratioP2;P2;SDS_P1;SDS_P2;PMS_P1;PMS_P2;Temp;Humidity;BMP_temperature;BMP_pressure;BME280_temperature;BME280_humidity;BME280_pressure;Samples;Min_cycle;Max_cycle;Signal;HPM_P1;HPM_P2
2021/08/31 00:02:06;;;;;;;26.25;15.10;;;;;;;25.09;73.84;100451.20;1904724;75;21086;-62
2021/08/31 00:04:35;;;;;;;24.63;15.03;;;;;;;25.09;74.03;100464.67;1904750;75;21047;-62
2021/08/31 00:07:04;;;;;;;27.27;14.70;;;;;;;25.07;74.15;100470.22;1904881;75;21059;-62
2021/08/31 00:09:33;;;;;;;25.45;15.18;;;;;;;25.06;74.10;100473.90;1904897;75;21102;-63
2021/08/31 00:12:02;;;;;;;28.80;15.32;;;;;;;25.02;74.07;100481.45;1904725;75;21548;-62
2021/08/31 00:14:30;;;;;;;23.00;13.85;;;;;;;24.99;74.38;100479.11;1904748;75;21015;-61
2021/08/31 00:16:59;;;;;;;28.20;14.70;;;;;;;24.95;74.55;100476.36;1904775;75;21040;-62
2021/08/31 00:19:28;;;;;;;28.27;15.35;;;;;;;24.92;74.82;100480.75;1904734;75;21438;-62
2021/08/31 00:21:57;;;;;;;30.25;15.03;;;;;;;24.92;74.96;100481.22;1905877;75;21079;-61
2021/08/31 00:24:25;;;;;;;25.02;15.30;;;;;;;24.92;75.10;100479.40;1914434;75;21047;-62
2021/08/31 00:26:54;;;;;;;24.87;14.15;;;;;;;24.93;75.19;100477.03;1914638;75;21012;-62
2021/08/31 00:29:23;;;;;;;21.97;13.60;;;;;;;24.93;75.19;100477.03;1914478;75;21074;-62
2021/08/31 00:31:52;;;;;;;18.80;13.60;;;;;;;24.93;75.04;100474.34;1914566;75;21043;-62
2021/08/31 00:34:21;;;;;;;26.55;14.25;;;;;;;24.91;75.04;100479.04;1914813;75;21461;-62
2021/08/31 00:36:49;;;;;;;22.62;12.30;;;;;;;24.88;75.20;100476.69;1914531;75;21101;-62
2021/08/31 00:39:19;;;;;;;19.80;13.55;;;;;;;24.86;75.16;100480.02;1914561;75;21083;-62
2021/08/31 00:41:48;;;;;;;19.77;12.20;;;;;;;24.88;75.12;100482.08;1914610;75;21515;-62
2021/08/31 00:44:22;;;;;;;20.85;12.33;;;;;;;24.88;75.01;100485.25;1914489;75;21142;-61
2021/08/31 00:46:59;;;;;;;25.55;14.40;;;;;;;24.88;75.01;100491.50;1914518;74;21031;-62
2021/08/31 00:49:28;;;;;;;25.40;13.60;;;;;;;24.88;74.99;100502.75;1913828;74;21011;-62
2021/08/31 00:51:57;;;;;;;23.12;14.47;;;;;;;24.86;74.91;100508.29;1914576;74;21077;-62
2021/08/31 00:54:28;;;;;;;28.50;14.80;;;;;;;24.83;74.95;100509.46;1914557;75;21536;-62
2021/08/31 00:56:59;;;;;;;28.57;15.32;;;;;;;24.83;75.04;100518.05;1913935;75;21104;-62
2021/08/31 00:59:28;;;;;;;32.25;16.62;;;;;;;24.82;75.03;100525.77;1914550;75;21108;-61
2021/08/31 01:01:58;;;;;;;25.62;16.62;;;;;;;24.79;74.99;100535.02;1914457;75;21086;-62
2021/08/31 01:04:28;;;;;;;28.38;16.55;;;;;;;24.76;75.36;100523.72;1914533;75;21547;-62
2021/08/31 01:06:59;;;;;;;28.47;15.43;;;;;;;24.73;75.69;100528.06;1914789;75;21513;-62
2021/08/31 01:09:28;;;;;;;29.80;16.27;;;;;;;24.70;75.80;100532.41;1914514;75;21563;-62
2021/08/31 01:11:58;;;;;;;28.60;18.30;;;;;;;24.65;76.26;100532.37;1914543;75;21074;-62
2021/08/31 01:14:28;;;;;;;35.75;24.95;;;;;;;24.61;76.33;100532.36;1914459;75;21110;-62
2021/08/31 01:16:57;;;;;;;39.33;24.85;;;;;;;24.59;76.64;100535.71;1914542;74;21521;-62
2021/08/31 01:19:29;;;;;;;30.45;18.10;;;;;;;24.55;76.86;100539.72;1914535;75;21051;-63
2021/08/31 01:22:00;;;;;;;26.93;16.75;;;;;;;24.51;76.80;100540.98;1914573;74;21102;-61
2021/08/31 01:24:29;;;;;;;36.50;22.67;;;;;;;24.46;77.05;100542.80;1914490;74;21094;-62
2021/08/31 01:26:59;;;;;;;29.07;18.70;;;;;;;24.46;77.11;100545.50;1914429;75;21055;-62
2021/08/31 01:29:30;;;;;;;27.93;15.55;;;;;;;24.44;77.10;100550.19;1914613;74;21101;-61
2021/08/31 01:32:00;;;;;;;31.12;16.67;;;;;;;24.43;77.12;100548.48;1914538;75;21445;-62
2021/08/31 01:34:29;;;;;;;27.10;15.38;;;;;;;24.41;77.15;100564.45;1914573;75;21097;-61
2021/08/31 01:36:59;;;;;;;29.42;15.20;;;;;;;24.38;77.19;100564.75;1914643;75;21108;-61
2021/08/31 01:39:27;;;;;;;30.95;16.42;;;;;;;24.37;77.23;100569.80;1914454;75;21547;-61
2021/08/31 01:41:56;;;;;;;25.72;13.98;;;;;;;24.37;77.22;100567.11;1914551;75;21039;-61
2021/08/31 01:44:25;;;;;;;30.35;16.05;;;;;;;24.36;77.16;100573.48;1914553;75;21490;-61
2021/08/31 01:46:54;;;;;;;25.02;15.70;;;;;;;24.32;77.13;100583.70;1914568;75;21052;-61
2021/08/31 01:49:22;;;;;;;28.23;15.85;;;;;;;24.31;77.21;100588.75;1914508;74;21121;-61
2021/08/31 01:51:51;;;;;;;26.10;16.23;;;;;;;24.26;77.25;100587.02;1914454;75;21129;-62
2021/08/31 01:54:20;;;;;;;27.27;17.37;;;;;;;24.19;77.59;100588.11;1914531;75;21043;-62
2021/08/31 01:56:49;;;;;;;25.20;15.45;;;;;;;24.15;77.72;100587.23;1914507;75;21067;-62
2021/08/31 01:59:18;;;;;;;35.15;16.82;;;;;;;24.14;78.11;100585.02;1914610;75;21559;-62
2021/08/31 02:01:46;;;;;;;36.08;19.42;;;;;;;24.23;78.76;100586.80;1914566;75;21102;-61
2021/08/31 02:04:15;;;;;;;41.28;21.02;;;;;;;24.30;78.77;100583.52;1914441;74;21129;-62
2021/08/31 02:06:44;;;;;;;35.10;18.05;;;;;;;24.35;79.02;100587.95;1914409;75;21112;-62
2021/08/31 02:09:12;;;;;;;36.60;19.50;;;;;;;24.40;79.03;100593.22;1914506;75;21015;-61
2021/08/31 02:11:41;;;;;;;29.70;17.98;;;;;;;24.46;78.86;100593.10;1914512;75;21071;-62
2021/08/31 02:14:09;;;;;;;33.67;18.82;;;;;;;24.50;78.90;100587.75;1914528;75;21055;-61
2021/08/31 02:16:39;;;;;;;31.25;19.12;;;;;;;24.52;78.82;100603.27;1914534;75;21536;-62
2021/08/31 02:19:08;;;;;;;34.65;19.12;;;;;;;24.54;78.78;100598.58;1914398;75;21104;-62
2021/08/31 02:21:37;;;;;;;34.13;19.98;;;;;;;24.54;78.58;100602.61;1914498;75;21074;-62
2021/08/31 02:24:06;;;;;;;32.30;19.60;;;;;;;24.54;78.59;100609.34;1914434;75;21166;-62
2021/08/31 02:26:35;;;;;;;43.38;20.70;;;;;;;24.52;78.51;100607.78;1914480;74;21095;-62
2021/08/31 02:29:04;;;;;;;35.65;18.70;;;;;;;24.50;78.53;100610.63;1914560;74;21035;-62
2021/08/31 02:31:32;;;;;;;33.10;17.95;;;;;;;24.46;78.40;100615.47;1914452;75;21105;-63
2021/08/31 02:34:01;;;;;;;33.15;17.02;;;;;;;24.43;78.40;100620.30;1914536;74;21039;-62
2021/08/31 02:36:30;;;;;;;26.68;15.43;;;;;;;24.42;78.39;100610.53;1914517;75;21092;-62
2021/08/31 02:38:58;;;;;;;34.98;16.73;;;;;;;24.41;78.35;100620.96;1914500;75;21046;-62
2021/08/31 02:41:27;;;;;;;26.17;15.35;;;;;;;24.39;78.51;100623.80;1914480;75;21074;-62
2021/08/31 02:43:56;;;;;;;26.90;14.87;;;;;;;24.39;78.49;100627.84;1914348;75;21051;-62
2021/08/31 02:46:25;;;;;;;27.37;16.27;;;;;;;24.37;78.42;100638.42;1914596;75;21101;-62
2021/08/31 02:48:54;;;;;;;25.45;15.88;;;;;;;24.32;78.42;100639.37;1914562;75;21071;-62
2021/08/31 02:51:22;;;;;;;34.20;17.40;;;;;;;24.30;78.44;100635.98;1914514;75;21054;-62
2021/08/31 02:53:52;;;;;;;30.32;17.73;;;;;;;24.25;78.42;100639.98;1914393;75;21043;-62
2021/08/31 02:56:20;;;;;;;29.70;16.27;;;;;;;24.20;78.47;100646.31;1914473;75;21442;-63
2021/08/31 02:58:49;;;;;;;30.02;17.67;;;;;;;24.14;78.56;100646.89;1914397;75;21184;-62
2021/08/31 03:01:34;;;;;;;33.90;17.20;;;;;;;24.10;78.74;100649.54;1914497;75;21110;-62
2021/08/31 03:04:04;;;;;;;30.08;17.57;;;;;;;24.05;78.90;100651.83;1914432;75;21117;-62
2021/08/31 03:06:33;;;;;;;31.50;17.30;;;;;;;24.00;78.97;100656.83;1914520;75;21116;-62
2021/08/31 03:09:02;;;;;;;29.12;17.40;;;;;;;24.01;79.02;100659.85;1914375;74;21133;-62
2021/08/31 03:11:31;;;;;;;30.57;18.23;;;;;;;23.99;79.07;100660.50;1914474;75;21051;-62
2021/08/31 03:14:00;;;;;;;28.67;16.50;;;;;;;23.99;79.15;100665.88;1914492;75;21071;-62
2021/08/31 03:16:29;;;;;;;36.15;17.82;;;;;;;23.96;79.25;100670.20;1914598;75;21111;-62
2021/08/31 03:18:57;;;;;;;33.42;19.10;;;;;;;23.93;79.40;100670.52;1914637;75;21435;-63
2021/08/31 03:21:26;;;;;;;36.25;19.32;;;;;;;23.92;79.60;100672.84;1914679;75;21059;-62
2021/08/31 03:23:55;;;;;;;38.25;18.57;;;;;;;23.88;79.76;100665.09;1914031;75;21152;-62
2021/08/31 03:26:24;;;;;;;29.27;17.95;;;;;;;23.86;79.85;100666.22;1904806;75;21059;-62
2021/08/31 03:28:53;;;;;;;32.13;17.62;;;;;;;23.85;79.98;100661.86;1904807;75;21113;-62
2021/08/31 03:31:21;;;;;;;35.83;18.73;;;;;;;23.86;80.06;100668.41;1904738;75;21113;-62
2021/08/31 03:33:51;;;;;;;32.83;18.55;;;;;;;23.85;80.09;100664.04;1904920;75;21059;-61
2021/08/31 03:36:19;;;;;;;31.90;18.12;;;;;;;23.86;80.14;100667.06;1904709;75;21134;-62
2021/08/31 03:38:48;;;;;;;30.97;18.30;;;;;;;23.88;80.63;100674.51;1904910;75;21169;-61
2021/08/31 03:41:17;;;;;;;34.60;19.12;;;;;;;23.89;80.88;100673.49;1904861;75;21481;-60
2021/08/31 03:43:46;;;;;;;33.33;17.30;;;;;;;23.95;81.04;100683.31;1904732;75;21067;-62
2021/08/31 03:46:15;;;;;;;34.65;19.05;;;;;;;23.98;80.81;100687.91;1905026;75;21035;-62
2021/08/31 03:48:44;;;;;;;35.15;18.57;;;;;;;24.02;80.69;100687.95;1904712;75;21107;-62
2021/08/31 03:51:12;;;;;;;34.45;20.68;;;;;;;24.08;80.56;100695.91;1904794;75;21110;-61
2021/08/31 03:53:42;;;;;;;37.85;21.07;;;;;;;24.10;80.40;100693.92;1904776;75;21575;-62
2021/08/31 03:56:10;;;;;;;35.40;20.60;;;;;;;24.16;80.27;100699.20;1904696;75;21126;-61
2021/08/31 03:58:39;;;;;;;36.68;18.40;;;;;;;24.25;80.33;100697.83;1904771;75;21075;-61
2021/08/31 04:01:08;;;;;;;29.60;16.85;;;;;;;24.44;80.12;100700.05;1904948;75;21105;-63
2021/08/31 04:03:36;;;;;;;36.83;18.00;;;;;;;24.72;79.88;100696.84;1904822;75;21040;-62
2021/08/31 04:06:05;;;;;;;34.38;17.45;;;;;;;24.97;79.40;100696.58;1904735;75;21060;-62
2021/08/31 04:08:34;;;;;;;32.08;19.87;;;;;;;25.25;78.94;100696.50;1904758;75;21109;-61
2021/08/31 04:11:02;;;;;;;36.68;21.97;;;;;;;25.56;78.53;100698.72;1904778;75;21063;-61
2021/08/31 04:13:31;;;;;;;34.50;17.57;;;;;;;25.83;77.84;100704.96;1904730;75;21044;-61
2021/08/31 04:16:00;;;;;;;32.25;16.32;;;;;;;26.03;76.77;100706.95;1904600;75;21547;-61
2021/08/31 04:18:29;;;;;;;27.05;15.53;;;;;;;26.24;76.21;100710.57;1904813;75;21193;-62
2021/08/31 04:20:58;;;;;;;27.07;13.32;;;;;;;26.40;75.88;100720.08;1904791;75;21060;-61
2021/08/31 04:23:27;;;;;;;23.57;14.38;;;;;;;26.48;75.57;100721.95;1904774;75;21015;-61
2021/08/31 04:25:56;;;;;;;28.67;13.78;;;;;;;26.40;74.91;100722.78;1904620;75;21502;-62
2021/08/31 04:28:24;;;;;;;28.02;14.50;;;;;;;26.34;74.72;100722.09;1904640;75;21067;-61
2021/08/31 04:30:53;;;;;;;24.77;13.93;;;;;;;26.38;74.61;100713.48;1904860;75;21454;-61
2021/08/31 04:33:22;;;;;;;23.62;14.05;;;;;;;26.45;74.41;100703.38;1904758;75;21047;-61
2021/08/31 04:35:50;;;;;;;24.00;12.65;;;;;;;26.62;74.05;100690.30;1904762;75;21016;-61
2021/08/31 04:38:19;;;;;;;27.32;14.18;;;;;;;26.76;73.75;100694.19;1904791;75;21153;-61
2021/08/31 04:40:47;;;;;;;26.55;13.25;;;;;;;26.71;73.45;100690.66;1904628;75;21150;-64
2021/08/31 04:43:16;;;;;;;21.17;11.45;;;;;;;26.95;73.34;100693.88;1904754;75;21572;-61
2021/08/31 04:45:45;;;;;;;22.73;12.80;;;;;;;27.34;72.90;100691.88;1904835;75;21060;-62
2021/08/31 04:48:14;;;;;;;20.85;11.73;;;;;;;27.72;72.17;100693.98;1904767;75;21036;-62
2021/08/31 04:50:43;;;;;;;21.12;11.05;;;;;;;28.01;71.13;100687.17;1904731;75;21051;-62
2021/08/31 04:53:12;;;;;;;18.25;10.43;;;;;;;28.29;70.28;100686.19;1904703;75;21101;-64
2021/08/31 04:55:41;;;;;;;21.02;11.25;;;;;;;28.49;69.21;100685.23;1904736;75;21557;-61
2021/08/31 04:58:10;;;;;;;20.43;12.07;;;;;;;28.75;68.94;100680.86;1904760;75;21114;-61
2021/08/31 05:00:38;;;;;;;22.40;12.20;;;;;;;29.08;68.44;100673.30;1904764;75;21132;-61
2021/08/31 05:03:07;;;;;;;17.60;10.63;;;;;;;29.45;67.55;100668.08;1904760;75;21036;-61
2021/08/31 05:05:36;;;;;;;21.45;12.05;;;;;;;29.74;66.00;100677.30;1904723;75;21060;-62
2021/08/31 05:08:05;;;;;;;20.72;11.93;;;;;;;29.83;64.62;100679.73;1904668;75;21197;-61
2021/08/31 05:10:34;;;;;;;21.17;11.65;;;;;;;30.07;64.63;100683.70;1904877;75;21039;-61
2021/08/31 05:13:02;;;;;;;21.75;12.25;;;;;;;30.46;64.27;100686.07;1904764;75;21543;-62
2021/08/31 05:15:33;;;;;;;18.57;11.90;;;;;;;30.82;63.66;100691.13;1904773;75;21035;-61
2021/08/31 05:18:02;;;;;;;21.02;12.60;;;;;;;31.03;62.90;100687.09;1904765;75;21039;-61
2021/08/31 05:20:32;;;;;;;19.55;11.33;;;;;;;31.14;62.17;100687.91;1904780;75;21113;-62
2021/08/31 05:23:02;;;;;;;20.02;12.10;;;;;;;31.32;61.52;100683.88;1904755;75;21035;-62
2021/08/31 05:25:31;;;;;;;17.17;11.53;;;;;;;31.46;60.66;100679.36;1905539;74;21059;-62
2021/08/31 05:28:00;;;;;;;21.42;11.30;;;;;;;31.71;60.23;100683.33;1914593;75;21118;-61
2021/08/31 05:30:28;;;;;;;23.55;11.85;;;;;;;31.92;59.44;100685.09;1914553;75;21086;-61
2021/08/31 05:32:57;;;;;;;19.05;10.80;;;;;;;32.25;58.81;100678.99;1914431;75;21043;-62
2021/08/31 05:35:26;;;;;;;20.08;11.90;;;;;;;32.58;57.89;100677.45;1914533;74;21054;-62
2021/08/31 05:37:55;;;;;;;19.25;11.28;;;;;;;32.39;57.54;100686.70;1914558;75;21050;-61
2021/08/31 05:40:24;;;;;;;22.73;12.37;;;;;;;32.20;57.80;100687.45;1914473;75;21137;-61
2021/08/31 05:42:52;;;;;;;20.52;11.57;;;;;;;31.90;57.97;100689.91;1914545;75;21057;-61
2021/08/31 05:45:21;;;;;;;19.92;11.33;;;;;;;31.61;58.49;100687.44;1914416;75;21461;-62
2021/08/31 05:47:50;;;;;;;23.62;12.03;;;;;;;31.40;59.05;100686.44;1914551;74;21113;-61
2021/08/31 05:50:19;;;;;;;19.25;11.65;;;;;;;31.21;59.23;100688.47;1914548;75;21043;-62
2021/08/31 05:52:47;;;;;;;30.45;12.33;;;;;;;31.16;59.38;100692.62;1914572;75;21120;-61
2021/08/31 05:55:17;;;;;;;19.85;12.10;;;;;;;31.36;59.22;100700.12;1914597;75;21047;-61
2021/08/31 05:57:46;;;;;;;23.70;11.68;;;;;;;31.88;58.53;100700.16;1914517;75;21414;-61
2021/08/31 06:00:16;;;;;;;20.60;11.53;;;;;;;32.35;57.73;100702.28;1914490;75;21108;-62
2021/08/31 06:02:44;;;;;;;25.65;11.68;;;;;;;32.15;57.26;100716.69;1914619;75;21117;-62
2021/08/31 06:05:14;;;;;;;18.80;11.90;;;;;;;31.79;57.37;100720.42;1914498;75;21042;-62
2021/08/31 06:07:43;;;;;;;26.02;12.33;;;;;;;31.46;58.27;100719.64;1914616;75;21423;-61
2021/08/31 06:10:18;;;;;;;19.52;11.70;;;;;;;31.23;58.60;100730.77;1914501;74;21583;-61
2021/08/31 06:12:43;;;;;;;19.77;11.43;;;;;;;30.94;58.71;100735.84;1913193;74;21118;-62
2021/08/31 06:15:12;;;;;;;18.95;12.03;;;;;;;30.68;58.92;100741.28;1914496;75;21086;-61
2021/08/31 06:17:41;;;;;;;23.00;11.97;;;;;;;30.60;58.90;100735.98;1914497;75;21497;-61
2021/08/31 06:20:11;;;;;;;26.68;11.68;;;;;;;30.62;59.10;100743.42;1914489;75;21090;-62
2021/08/31 06:22:40;;;;;;;26.12;11.95;;;;;;;30.61;59.01;100745.80;1914519;75;21536;-61
2021/08/31 06:25:09;;;;;;;23.32;12.15;;;;;;;30.89;59.05;100742.33;1914365;75;21030;-62
2021/08/31 06:27:37;;;;;;;17.67;10.98;;;;;;;31.00;59.39;100740.48;1914465;74;21055;-62
2021/08/31 06:30:07;;;;;;;18.50;11.60;;;;;;;30.87;59.03;100743.88;1914510;75;21035;-62
2021/08/31 06:32:36;;;;;;;24.37;12.90;;;;;;;30.65;59.02;100745.73;1914553;75;21031;-61
2021/08/31 06:35:05;;;;;;;22.77;11.95;;;;;;;30.45;59.51;100747.38;1914515;75;21148;-62
2021/08/31 06:37:34;;;;;;;23.20;12.73;;;;;;;30.24;60.36;100750.33;1914379;75;21035;-62
2021/08/31 06:40:03;;;;;;;21.80;12.85;;;;;;;30.06;60.81;100752.59;1914476;75;21035;-61
2021/08/31 06:42:32;;;;;;;27.70;13.95;;;;;;;29.87;61.21;100748.05;1914573;75;21137;-61
2021/08/31 06:45:01;;;;;;;22.07;13.53;;;;;;;29.77;61.66;100754.25;1914489;75;21082;-61
2021/08/31 06:47:30;;;;;;;24.67;14.33;;;;;;;29.65;62.17;100754.67;1914587;75;21400;-62
2021/08/31 06:49:58;;;;;;;30.05;14.55;;;;;;;29.59;62.09;100760.84;1914408;75;21039;-61
2021/08/31 06:52:27;;;;;;;25.20;13.83;;;;;;;29.50;62.39;100761.95;1914552;75;21090;-61
2021/08/31 06:54:56;;;;;;;21.62;13.85;;;;;;;29.32;62.91;100766.86;1914600;75;21039;-62
2021/08/31 06:57:25;;;;;;;23.62;14.60;;;;;;;29.17;63.52;100767.64;1914628;75;21050;-61
2021/08/31 07:00:15;;;;;;;30.68;14.93;;;;;;;29.08;63.68;100770.05;1859697;76;21630;-61
2021/08/31 07:02:44;;;;;;;23.98;13.72;;;;;;;29.01;63.77;100774.51;1859677;77;21260;-62
2021/08/31 07:05:12;;;;;;;20.27;12.43;;;;;;;28.99;63.64;100775.20;1859777;77;21112;-61
2021/08/31 07:07:41;;;;;;;27.60;12.90;;;;;;;28.98;63.49;100777.59;1859763;77;21115;-61
2021/08/31 07:10:11;;;;;;;25.65;15.23;;;;;;;29.04;63.38;100774.99;1859769;77;21039;-62
2021/08/31 07:12:40;;;;;;;28.57;13.65;;;;;;;29.19;63.83;100771.02;1859874;77;21102;-61
2021/08/31 07:15:09;;;;;;;26.25;13.93;;;;;;;29.99;63.35;100768.28;1859769;77;21055;-61
2021/08/31 07:17:38;;;;;;;27.98;12.93;;;;;;;30.99;61.27;100771.45;1859733;77;21063;-62
2021/08/31 07:20:08;;;;;;;23.65;11.95;;;;;;;31.82;59.16;100774.48;1859745;77;21084;-62
2021/08/31 07:22:36;;;;;;;23.65;12.53;;;;;;;32.29;58.05;100772.05;1859758;77;21055;-61
2021/08/31 07:25:06;;;;;;;20.55;11.60;;;;;;;32.64;56.99;100771.48;1859770;77;21132;-62
2021/08/31 07:27:35;;;;;;;21.15;12.00;;;;;;;33.49;55.28;100769.64;1859665;77;21055;-62
2021/08/31 07:30:04;;;;;;;25.12;12.80;;;;;;;33.83;52.57;100767.23;1859753;77;21081;-61
2021/08/31 07:32:33;;;;;;;21.82;12.07;;;;;;;34.15;52.54;100765.16;1859754;77;21059;-61
2021/08/31 07:35:02;;;;;;;22.60;13.40;;;;;;;34.45;52.30;100766.84;1859762;77;21126;-61
2021/08/31 07:37:31;;;;;;;18.98;11.80;;;;;;;34.46;51.30;100769.91;1859732;77;21059;-61
2021/08/31 07:40:00;;;;;;;22.17;11.70;;;;;;;33.96;50.88;100769.64;1859702;77;21216;-62
2021/08/31 07:42:29;;;;;;;17.52;11.80;;;;;;;33.67;51.46;100769.04;1859750;77;21048;-61
2021/08/31 07:45:00;;;;;;;21.45;12.98;;;;;;;33.17;51.80;100768.60;1859963;77;21028;-61
2021/08/31 07:47:28;;;;;;;23.32;13.18;;;;;;;32.75;52.37;100769.22;1859779;77;21091;-61
2021/08/31 07:49:57;;;;;;;22.98;12.55;;;;;;;32.31;53.46;100769.95;1859740;77;21062;-62
2021/08/31 07:52:26;;;;;;;21.97;12.82;;;;;;;31.98;53.71;100767.03;1859751;77;21060;-61
2021/08/31 07:54:55;;;;;;;26.33;12.65;;;;;;;31.72;54.66;100760.37;1859714;77;21490;-61
2021/08/31 07:57:24;;;;;;;21.90;12.45;;;;;;;31.45;55.29;100760.15;1859735;77;21199;-61
2021/08/31 07:59:53;;;;;;;20.68;12.10;;;;;;;31.27;56.02;100751.63;1859801;77;21128;-61
2021/08/31 08:02:21;;;;;;;22.02;12.35;;;;;;;31.49;55.92;100749.75;1859712;77;21079;-62
2021/08/31 08:04:58;;;;;;;22.73;11.63;;;;;;;32.06;55.83;100750.58;1859743;77;21087;-61
2021/08/31 08:07:20;;;;;;;20.55;11.68;;;;;;;32.88;53.75;100748.80;1858706;77;21084;-61
2021/08/31 08:09:49;;;;;;;20.88;10.53;;;;;;;33.69;51.77;100755.19;1859720;77;21433;-62
2021/08/31 08:12:18;;;;;;;18.17;11.68;;;;;;;34.51;49.67;100753.70;1859754;77;21099;-61
2021/08/31 08:14:49;;;;;;;15.55;10.70;;;;;;;35.21;47.91;100750.13;1859778;77;21063;-61
2021/08/31 08:17:19;;;;;;;18.40;10.90;;;;;;;35.21;47.72;100749.30;1859776;77;21031;-61
2021/08/31 08:19:48;;;;;;;18.85;10.95;;;;;;;34.83;48.40;100741.45;1859152;77;21083;-61
2021/08/31 08:22:18;;;;;;;19.12;11.03;;;;;;;34.39;48.59;100751.33;1859741;77;21552;-61
2021/08/31 08:24:47;;;;;;;23.32;12.07;;;;;;;33.95;48.86;100754.28;1859747;77;21572;-61
2021/08/31 08:27:16;;;;;;;21.93;12.45;;;;;;;33.40;49.81;100748.57;1859738;77;21048;-61
2021/08/31 08:29:45;;;;;;;18.82;12.30;;;;;;;33.00;50.62;100752.60;1859705;77;21084;-61
2021/08/31 08:32:14;;;;;;;21.70;11.90;;;;;;;32.66;51.46;100750.30;1859597;77;21059;-62
2021/08/31 08:34:42;;;;;;;17.73;11.95;;;;;;;32.43;52.09;100752.53;1859723;77;21518;-61
2021/08/31 08:37:11;;;;;;;19.25;11.65;;;;;;;32.25;52.70;100755.80;1859723;77;21160;-61
2021/08/31 08:39:40;;;;;;;15.05;11.28;;;;;;;32.21;52.45;100756.72;1859700;77;21099;-61
2021/08/31 08:42:09;;;;;;;17.98;11.95;;;;;;;32.19;52.97;100749.27;1859795;77;21101;-61
2021/08/31 08:44:38;;;;;;;17.90;11.33;;;;;;;32.30;53.01;100746.50;1859635;77;21079;-62
2021/08/31 08:47:07;;;;;;;23.50;11.20;;;;;;;32.75;52.31;100744.69;1859664;77;21166;-61
2021/08/31 08:49:36;;;;;;;19.12;11.15;;;;;;;33.34;51.35;100742.57;1859736;77;21047;-62
2021/08/31 08:52:05;;;;;;;19.32;10.95;;;;;;;33.40;51.14;100747.20;1859792;77;21052;-61
2021/08/31 08:54:34;;;;;;;16.93;11.93;;;;;;;33.06;51.14;100755.84;1859770;77;21024;-61
2021/08/31 08:57:03;;;;;;;19.57;11.60;;;;;;;32.72;51.95;100765.53;1859705;77;21015;-63
2021/08/31 08:59:32;;;;;;;20.57;11.83;;;;;;;32.41;52.81;100766.88;1860673;77;21152;-61
2021/08/31 09:02:01;;;;;;;17.87;11.97;;;;;;;32.10;53.21;100764.11;1866013;77;21094;-61
2021/08/31 09:04:50;;;;;;;16.27;11.18;;;;;;;31.94;53.54;100761.97;1866011;77;21610;-61
2021/08/31 09:07:24;;;;;;;23.50;12.13;;;;;;;31.85;53.19;100760.45;1865952;77;21051;-61
2021/08/31 09:10:11;;;;;;;24.43;12.68;;;;;;;31.83;53.67;100759.81;1865929;77;21439;-61
2021/08/31 09:12:41;;;;;;;21.65;12.58;;;;;;;31.78;53.88;100760.95;1866024;77;21525;-61
2021/08/31 09:15:25;;;;;;;20.97;13.10;;;;;;;32.22;53.28;100762.50;1866040;77;21180;-61
2021/08/31 09:18:13;;;;;;;18.92;11.50;;;;;;;33.19;52.25;100761.05;1852857;77;21075;-62
2021/08/31 09:20:45;;;;;;;22.00;11.57;;;;;;;33.58;50.98;100748.44;1866112;77;21181;-62
2021/08/31 09:23:23;;;;;;;20.15;11.95;;;;;;;33.63;50.77;100754.11;1866249;77;21027;-61
2021/08/31 09:25:54;;;;;;;21.12;11.83;;;;;;;34.12;48.41;100747.82;1866009;77;21036;-61
2021/08/31 09:28:29;;;;;;;18.07;11.68;;;;;;;34.19;48.29;100749.50;1866093;77;21027;-62
2021/08/31 09:31:01;;;;;;;17.85;10.88;;;;;;;34.91;47.67;100743.91;1865566;77;21055;-61
2021/08/31 09:33:33;;;;;;;16.75;10.85;;;;;;;35.48;46.02;100738.97;1866311;77;21165;-61
2021/08/31 09:36:09;;;;;;;19.15;11.55;;;;;;;35.37;46.34;100741.36;1866120;77;21087;-62
2021/08/31 09:38:46;;;;;;;20.70;11.38;;;;;;;35.42;45.91;100739.88;1866029;77;21063;-61
2021/08/31 09:41:38;;;;;;;18.73;10.78;;;;;;;35.11;45.33;100730.62;1866055;77;21559;-61
2021/08/31 09:44:26;;;;;;;19.95;12.05;;;;;;;34.73;44.87;100739.71;1866132;77;21075;-62
2021/08/31 09:47:00;;;;;;;20.82;11.12;;;;;;;34.15;46.29;100741.40;1866234;77;21075;-62
2021/08/31 09:49:39;;;;;;;19.70;12.00;;;;;;;33.80;46.90;100744.44;1865903;77;21031;-62
2021/08/31 09:52:16;;;;;;;18.75;11.25;;;;;;;33.57;47.72;100752.20;1866087;77;21106;-61
2021/08/31 09:54:51;;;;;;;16.05;11.35;;;;;;;33.35;48.28;100744.27;1866049;77;21051;-61
2021/08/31 09:57:35;;;;;;;18.17;11.25;;;;;;;33.16;48.53;100747.81;1865968;77;21098;-62
2021/08/31 10:00:09;;;;;;;18.50;10.60;;;;;;;33.09;48.36;100744.53;1865370;77;21023;-61
2021/08/31 10:02:48;;;;;;;20.20;10.80;;;;;;;32.83;46.36;100739.02;1859680;77;21056;-62
2021/08/31 10:05:10;;;;;;;17.37;11.33;;;;;;;32.65;47.52;100744.55;1857388;77;21064;-61
2021/08/31 10:07:41;;;;;;;18.73;12.13;;;;;;;32.82;48.31;100734.10;1859855;77;21553;-61
2021/08/31 10:10:10;;;;;;;18.60;11.65;;;;;;;33.35;47.84;100734.71;1859563;77;21121;-62
2021/08/31 10:12:39;;;;;;;20.40;10.80;;;;;;;33.49;47.37;100741.52;1859789;77;21051;-61
2021/08/31 10:15:10;;;;;;;18.65;12.03;;;;;;;33.45;47.47;100736.47;1859702;77;21485;-61
2021/08/31 10:17:41;;;;;;;21.73;12.90;;;;;;;33.25;48.12;100743.30;1859768;77;21104;-61
2021/08/31 10:20:11;;;;;;;19.23;11.20;;;;;;;33.07;48.50;100742.55;1859686;77;21028;-61
2021/08/31 10:22:41;;;;;;;23.27;11.80;;;;;;;32.87;48.42;100742.51;1859708;77;21534;-62
2021/08/31 10:25:11;;;;;;;17.37;11.90;;;;;;;32.69;48.76;100740.89;1859685;77;21098;-61
2021/08/31 10:27:44;;;;;;;22.82;12.95;;;;;;;32.58;49.27;100751.87;1859728;77;21023;-61
2021/08/31 10:30:21;;;;;;;21.90;12.73;;;;;;;32.48;49.82;100746.78;1859769;77;21080;-61
2021/08/31 10:32:53;;;;;;;18.00;11.53;;;;;;;32.46;49.81;100752.96;1859800;77;21557;-61
2021/08/31 10:35:43;;;;;;;19.73;12.05;;;;;;;32.49;49.37;100748.45;1858290;76;21091;-60
2021/08/31 10:38:09;;;;;;;22.77;12.37;;;;;;;32.69;49.60;100749.91;1859183;77;21052;-60
2021/08/31 10:40:41;;;;;;;21.17;12.10;;;;;;;32.87;49.01;100747.13;1859327;77;21067;-60
2021/08/31 10:43:13;;;;;;;27.82;12.07;;;;;;;33.12;48.79;100749.28;1859911;77;21342;-60
2021/08/31 10:45:44;;;;;;;19.33;12.27;;;;;;;33.59;48.48;100744.67;1859800;77;21059;-60
2021/08/31 10:48:25;;;;;;;15.90;11.13;;;;;;;33.70;47.56;100745.92;1859948;77;21838;-60
2021/08/31 10:51:10;;;;;;;17.67;11.85;;;;;;;33.63;47.93;100750.02;1859664;77;21056;-60
2021/08/31 10:53:46;;;;;;;26.42;13.72;;;;;;;33.42;47.75;100746.47;1859415;77;21063;-60
2021/08/31 10:56:27;;;;;;;24.30;13.03;;;;;;;33.24;48.09;100743.53;1859588;77;21072;-60
2021/08/31 10:59:09;;;;;;;26.37;13.35;;;;;;;33.20;48.22;100750.43;1859841;77;21439;-60
2021/08/31 11:01:41;;;;;;;16.30;11.75;;;;;;;33.36;48.11;100745.09;1861581;77;21079;-60
2021/08/31 11:04:30;;;;;;;26.97;13.28;;;;;;;33.70;47.91;100744.05;1865958;77;21137;-60
2021/08/31 11:07:01;;;;;;;27.17;13.00;;;;;;;34.10;47.22;100733.01;1866034;77;21028;-60
2021/08/31 11:09:31;;;;;;;20.70;13.38;;;;;;;34.44;46.35;100731.02;1865936;77;21047;-60
2021/08/31 11:12:11;;;;;;;22.05;13.35;;;;;;;34.76;45.79;100736.55;1865838;77;21125;-60
2021/08/31 11:14:50;;;;;;;19.50;13.30;;;;;;;34.89;45.64;100730.98;1865919;77;21102;-60
2021/08/31 11:17:37;;;;;;;25.12;12.30;;;;;;;34.97;45.00;100739.44;1865819;77;21059;-60
2021/08/31 11:20:24;;;;;;;22.87;14.45;;;;;;;34.71;44.81;100733.62;1865947;77;21051;-60
2021/08/31 11:23:05;;;;;;;18.10;12.53;;;;;;;34.20;45.58;100735.34;1865829;77;21133;-60
2021/08/31 11:25:37;;;;;;;23.85;13.00;;;;;;;33.58;46.35;100740.25;1864204;77;21204;-60